createdAt,value
2022-10-19T00:04:10.544Z,131.94
2022-10-19T00:09:29.647Z,131.73
2022-10-19T00:14:21.924Z,131.94
2022-10-19T00:19:21.843Z,132.66
2022-10-19T00:24:21.750Z,132.56
2022-10-19T00:29:21.712Z,132.15
2022-10-19T00:34:21.644Z,133.29
2022-10-19T00:39:21.549Z,132.87
2022-10-19T00:44:21.500Z,132.87
2022-10-19T00:49:21.432Z,133.61
2022-10-19T00:54:21.369Z,132.56
2022-10-19T00:59:21.266Z,132.98
2022-10-19T01:04:21.232Z,132.46
2022-10-19T01:09:21.165Z,132.98
2022-10-19T01:14:21.066Z,132.98
2022-10-19T01:19:21.027Z,132.77
2022-10-19T01:24:20.956Z,132.98
2022-10-19T01:29:20.858Z,132.77
2022-10-19T01:34:20.867Z,133.08
2022-10-19T01:39:20.760Z,133.08
2022-10-19T01:44:20.693Z,133.61
2022-10-19T01:49:20.613Z,134.14
2022-10-19T01:54:20.560Z,134.68
2022-10-19T01:59:20.484Z,135.54
2022-10-19T02:04:20.420Z,135.22
2022-10-19T02:09:20.369Z,135.54
2022-10-19T02:14:20.283Z,136.64
2022-10-19T02:19:20.256Z,137.42
2022-10-19T02:24:20.156Z,136.09
2022-10-19T02:29:20.087Z,136.86
2022-10-19T02:34:20.058Z,137.64
2022-10-19T02:39:19.940Z,137.31
2022-10-19T02:44:19.884Z,137.08
2022-10-19T02:49:19.828Z,138.32
2022-10-19T02:54:19.740Z,137.76
2022-10-19T02:59:19.660Z,138.77
2022-10-19T03:04:19.611Z,138.55
2022-10-19T03:09:19.543Z,138.43
2022-10-19T03:14:19.503Z,138.21
2022-10-19T03:19:19.412Z,138.09
2022-10-19T03:24:19.342Z,139.23
2022-10-19T03:29:19.303Z,138.89
2022-10-19T03:34:19.209Z,139.12
2022-10-19T03:39:19.144Z,140.51
2022-10-19T03:44:19.070Z,140.74
2022-10-19T03:49:19.000Z,140.86
2022-10-19T03:54:20.652Z,141.10
2022-10-19T03:59:18.864Z,140.51
2022-10-19T04:04:18.784Z,141.33
2022-10-19T04:09:18.771Z,141.45
2022-10-19T04:14:31.627Z,140.86
2022-10-19T04:19:34.709Z,141.93
2022-10-19T04:24:27.112Z,142.65
2022-10-19T04:29:29.967Z,142.29
2022-10-19T04:34:26.971Z,142.40
2022-10-19T04:39:26.909Z,141.45
2022-10-19T04:44:26.850Z,141.69
2022-10-19T04:49:26.785Z,141.33
2022-10-19T04:54:26.722Z,140.86
2022-10-19T04:59:26.645Z,140.86
2022-10-19T05:04:26.585Z,140.62
2022-10-19T05:09:26.527Z,140.39
2022-10-19T05:19:26.483Z,141.21
2022-10-19T05:24:26.309Z,141.81
2022-10-19T05:29:26.243Z,140.39
2022-10-19T05:34:26.172Z,141.69
2022-10-19T05:39:26.131Z,140.86
2022-10-19T05:44:26.114Z,142.52
2022-10-19T05:49:25.980Z,143.13
2022-10-19T05:54:27.796Z,143.25
2022-10-19T05:59:25.835Z,144.11
2022-10-19T06:04:25.752Z,144.97
2022-10-19T06:09:25.737Z,145.85
2022-10-19T06:14:25.623Z,146.23
2022-10-19T06:19:25.569Z,147.12
2022-10-19T06:24:25.491Z,146.61
2022-10-19T06:29:25.436Z,147.77
2022-10-19T06:34:25.406Z,149.60
2022-10-19T06:39:25.301Z,150.80
2022-10-19T06:44:25.239Z,149.73
2022-10-19T06:49:25.173Z,150.80
2022-10-19T06:54:25.088Z,150.67
2022-10-19T06:59:25.087Z,150.94
2022-10-19T07:04:24.971Z,150.54
2022-10-19T07:09:24.914Z,150.94
2022-10-19T07:14:24.830Z,149.07
2022-10-19T07:19:24.729Z,147.12
2022-10-19T07:24:24.699Z,143.86
2022-10-19T07:29:24.628Z,138.89
2022-10-19T07:34:26.809Z,134.03
2022-10-19T07:39:24.478Z,130.11
2022-10-19T07:44:24.409Z,127.26
2022-10-19T07:49:24.340Z,124.36
2022-10-19T07:54:24.299Z,122.73
2022-10-19T07:59:24.288Z,120.62
2022-10-19T08:09:51.497Z,115.50
2022-10-19T08:14:25.036Z,110.65
2022-10-19T08:19:23.937Z,105.21
2022-10-19T08:24:23.867Z,100.21
2022-10-19T08:29:25.561Z,95.55
2022-10-19T08:34:23.727Z,92.70
2022-10-19T08:39:23.749Z,89.17
2022-10-19T08:44:23.605Z,85.21
2022-10-19T08:49:23.529Z,81.04
2022-10-19T08:54:23.754Z,78.25
2022-10-19T08:59:23.505Z,75.93
2022-10-19T09:04:23.414Z,74.07
2022-10-19T09:09:23.274Z,71.92
2022-10-19T09:14:23.225Z,69.49
2022-10-19T09:19:23.208Z,67.54
2022-10-19T09:24:23.037Z,65.60
2022-10-19T09:29:23.000Z,63.76
2022-10-19T09:34:22.975Z,60.91
2022-10-19T09:39:25.672Z,58.30
2022-10-19T09:44:23.796Z,56.47
2022-10-19T09:49:22.722Z,54.78
2022-10-19T09:54:22.831Z,52.73
2022-10-19T09:59:22.639Z,50.97
2022-10-19T10:04:22.548Z,49.74
2022-10-19T10:09:22.465Z,48.94
2022-10-19T10:14:22.396Z,48.21
2022-10-19T10:19:25.328Z,47.77
2022-10-19T10:24:22.254Z,47.08
2022-10-19T10:29:22.203Z,46.05
2022-10-19T10:34:28.723Z,45.70
2022-10-19T10:39:23.064Z,45.02
2022-10-19T10:44:22.014Z,45.07
2022-10-19T10:49:21.955Z,45.31
2022-10-19T10:54:21.871Z,46.05
2022-10-19T10:59:21.811Z,47.18
2022-10-19T11:04:21.764Z,48.29
2022-10-19T11:09:21.639Z,49.11
2022-10-19T11:14:21.602Z,50.88
2022-10-19T11:19:21.535Z,52.33
2022-10-19T11:24:21.465Z,53.87
2022-10-19T11:29:21.396Z,55.65
2022-10-19T11:34:23.724Z,56.73
2022-10-19T11:39:21.279Z,57.78
2022-10-19T11:44:21.188Z,59.04
2022-10-19T11:49:21.134Z,60.17
2022-10-19T11:54:21.066Z,60.96
2022-10-19T11:59:20.954Z,61.89
2022-10-19T12:04:20.935Z,63.05
2022-10-19T12:09:20.900Z,63.76
2022-10-19T12:14:20.805Z,65.40
2022-10-19T12:19:20.714Z,66.90
2022-10-19T12:24:20.665Z,67.54
2022-10-19T12:29:20.596Z,69.32
2022-10-19T12:34:20.526Z,70.30
2022-10-19T12:39:20.429Z,72.41
2022-10-19T12:44:20.445Z,74.79
2022-10-19T12:49:20.316Z,76.62
2022-10-19T12:54:20.235Z,79.58
2022-10-19T12:59:20.192Z,81.98
2022-10-19T13:04:20.198Z,84.11
2022-10-19T13:09:20.037Z,85.73
2022-10-19T13:14:19.982Z,86.88
2022-10-19T13:19:19.908Z,87.15
2022-10-19T13:24:19.832Z,88.24
2022-10-19T13:29:19.852Z,89.08
2022-10-19T13:34:19.737Z,90.22
2022-10-19T13:39:19.625Z,91.00
2022-10-19T13:44:19.580Z,92.70
2022-10-19T13:49:19.501Z,94.25
2022-10-19T13:54:19.443Z,95.77
2022-10-19T13:59:19.447Z,97.71
2022-10-19T14:04:19.304Z,99.68
2022-10-19T14:09:19.229Z,100.75
2022-10-19T14:14:19.174Z,102.64
2022-10-19T14:19:19.088Z,103.59
2022-10-19T14:24:19.056Z,104.68
2022-10-19T14:29:18.957Z,106.87
2022-10-19T14:34:18.891Z,107.62
2022-10-19T14:39:18.828Z,110.37
2022-10-19T14:44:18.773Z,111.17
2022-10-19T14:49:18.703Z,111.98
2022-10-19T14:54:18.612Z,113.03
2022-10-19T14:59:18.559Z,115.19
2022-10-19T15:04:18.503Z,115.66
2022-10-19T15:09:30.262Z,116.22
2022-10-19T15:14:19.359Z,118.25
2022-10-19T15:19:18.267Z,119.51
2022-10-19T15:24:18.262Z,120.19
2022-10-19T15:29:18.172Z,120.79
2022-10-19T15:34:18.074Z,120.54
2022-10-19T15:39:32.369Z,121.67
2022-10-19T15:44:18.970Z,121.32
2022-10-19T15:49:17.859Z,121.49
2022-10-19T15:54:17.843Z,120.97
2022-10-19T15:59:17.782Z,122.02
2022-10-19T16:04:17.678Z,121.93
2022-10-19T16:09:17.620Z,124.08
2022-10-19T16:19:17.468Z,124.72
2022-10-19T16:24:17.428Z,124.82
2022-10-19T16:29:17.343Z,125.84
2022-10-19T16:34:17.258Z,126.78
2022-10-19T16:39:17.292Z,127.36
2022-10-19T16:44:17.132Z,128.82
2022-10-19T16:49:17.039Z,129.81
2022-10-19T16:54:17.015Z,130.91
2022-10-19T16:59:16.949Z,131.53
2022-10-19T17:04:16.865Z,132.98
2022-10-19T17:09:40.832Z,133.29
2022-10-19T17:14:17.776Z,132.87
2022-10-19T17:19:16.646Z,132.77
2022-10-19T17:24:21.114Z,133.50
2022-10-19T17:29:16.529Z,133.72
2022-10-19T17:34:16.470Z,133.82
2022-10-19T17:39:16.408Z,133.61
2022-10-19T17:44:16.357Z,134.46
2022-10-19T17:49:16.241Z,134.46
2022-10-19T17:54:16.207Z,135.87
2022-10-19T17:59:16.141Z,136.86
2022-10-19T18:04:16.116Z,138.32
2022-10-19T18:09:15.981Z,138.89
2022-10-19T18:14:15.930Z,138.21
2022-10-19T18:19:15.819Z,140.27
2022-10-19T18:24:15.804Z,140.16
2022-10-19T18:29:15.748Z,140.98
2022-10-19T18:34:15.625Z,142.89
2022-10-19T18:39:15.568Z,144.60
2022-10-19T18:44:15.540Z,145.60
2022-10-19T18:49:15.420Z,146.36
2022-10-19T18:54:15.389Z,146.36
2022-10-19T18:59:15.404Z,147.64
2022-10-19T19:04:15.234Z,148.81
2022-10-19T19:09:15.195Z,148.42
2022-10-19T19:14:15.111Z,148.16
2022-10-19T19:19:15.134Z,150.54
2022-10-19T19:24:14.979Z,149.47
2022-10-19T19:29:14.907Z,148.16
2022-10-19T19:34:14.846Z,147.64
2022-10-19T19:39:14.792Z,147.38
2022-10-19T19:44:14.686Z,146.23
2022-10-19T19:49:14.641Z,146.48
2022-10-19T19:54:14.579Z,146.23
2022-10-19T19:59:14.501Z,146.87
2022-10-19T20:04:14.467Z,147.38
2022-10-19T20:09:14.369Z,146.74
2022-10-19T20:14:14.321Z,148.03
2022-10-19T20:19:14.247Z,148.29
2022-10-19T20:24:14.177Z,149.20
2022-10-19T20:29:14.086Z,150.27
2022-10-19T20:34:14.251Z,150.67
2022-10-19T20:39:13.963Z,150.67
2022-10-19T20:44:13.990Z,149.47
2022-10-19T20:49:13.841Z,149.20
2022-10-19T20:54:13.770Z,150.54
2022-10-19T20:59:13.734Z,148.81
2022-10-19T21:04:13.652Z,148.94
2022-10-19T21:09:13.615Z,148.68
2022-10-19T21:14:13.518Z,148.42
2022-10-19T21:19:13.427Z,150.27
2022-10-19T21:24:13.360Z,150.00
2022-10-19T21:29:13.374Z,150.67
2022-10-19T21:34:13.228Z,151.35
2022-10-19T21:39:13.174Z,150.40
2022-10-19T21:44:13.137Z,151.89
2022-10-19T21:49:13.005Z,151.75
2022-10-19T21:54:13.022Z,152.44
2022-10-19T21:59:12.877Z,152.44
2022-10-19T22:04:12.815Z,153.13
2022-10-19T22:09:12.799Z,152.99
2022-10-19T22:14:12.715Z,154.25
2022-10-19T22:19:12.835Z,154.53
2022-10-19T22:24:13.666Z,154.25
2022-10-19T22:29:12.594Z,156.25
2022-10-19T22:34:12.423Z,155.53
2022-10-19T22:39:12.414Z,155.24
2022-10-19T22:44:12.318Z,154.96
2022-10-19T22:49:12.202Z,154.67
2022-10-19T22:54:32.378Z,154.39
2022-10-19T22:59:24.778Z,155.24
2022-10-19T23:04:24.694Z,154.25
2022-10-19T23:09:24.668Z,155.67
2022-10-19T23:14:24.562Z,156.83
2022-10-19T23:19:24.530Z,155.82
2022-10-19T23:24:24.515Z,156.39
2022-10-19T23:29:24.442Z,158.15
2022-10-19T23:34:24.488Z,158.75
2022-10-19T23:39:24.257Z,159.65
2022-10-19T23:44:24.188Z,157.86
2022-10-19T23:49:24.119Z,157.56
2022-10-19T23:54:24.056Z,157.71
2022-10-19T23:59:23.990Z,157.27
